Time;durP1;ratioP1;P1;durP2;ratioP2;P2;SDS_P1;SDS_P2;PMS_P1;PMS_P2;Temp;Humidity;BMP_temperature;BMP_pressure;BME280_temperature;BME280_humidity;BME280_pressure;Samples;Min_cycle;Max_cycle;Signal;HPM_P1;HPM_P2
2021/03/12 00:00:31;;;;;;;33.37;15.93;;;;;;;1.90;64.75;94911.66;5014969;28;20215;-70
2021/03/12 00:02:57;;;;;;;31.58;16.98;;;;;;;2.08;64.22;94943.22;5014682;28;20192;-70
2021/03/12 00:05:22;;;;;;;38.27;17.10;;;;;;;2.04;64.13;94944.09;5014940;28;20181;-70
2021/03/12 00:07:48;;;;;;;37.07;17.13;;;;;;;1.77;64.47;94942.16;5014744;28;20174;-76
2021/03/12 00:10:15;;;;;;;31.10;16.43;;;;;;;0.92;66.88;94951.75;5014909;28;20169;-72
2021/03/12 00:12:41;;;;;;;34.65;17.42;;;;;;;0.46;67.80;94954.91;5014671;28;20169;-76
2021/03/12 00:15:08;;;;;;;36.00;17.93;;;;;;;0.35;68.40;94947.41;5014837;28;20185;-76
2021/03/12 00:17:34;;;;;;;37.55;18.55;;;;;;;0.42;68.30;94943.41;5014527;28;20177;-76
2021/03/12 00:19:59;;;;;;;41.33;18.53;;;;;;;0.61;67.96;94953.16;5014905;28;20181;-70
2021/03/12 00:22:25;;;;;;;33.20;18.00;;;;;;;0.96;66.64;94946.72;5014488;28;20243;-70
2021/03/12 00:24:51;;;;;;;39.33;17.93;;;;;;;1.15;65.34;94944.88;5014665;28;20205;-70
2021/03/12 00:27:16;;;;;;;35.97;18.87;;;;;;;1.11;65.16;94925.47;5014476;28;20189;-70
2021/03/12 00:29:42;;;;;;;36.43;18.20;;;;;;;1.13;65.75;94941.00;5014698;28;20214;-69
2021/03/12 00:32:07;;;;;;;32.30;17.53;;;;;;;0.92;66.88;94930.72;5014556;28;20180;-69
2021/03/12 00:34:33;;;;;;;37.27;17.23;;;;;;;0.86;66.45;94923.97;5014357;28;20655;-69
2021/03/12 00:36:58;;;;;;;36.27;18.70;;;;;;;1.39;65.96;94928.25;5014562;28;20257;-69
2021/03/12 00:39:24;;;;;;;33.50;16.57;;;;;;;1.61;64.95;94925.81;5014295;28;20165;-70
2021/03/12 00:41:52;;;;;;;36.23;17.33;;;;;;;1.23;65.42;94910.03;5014509;28;20567;-70
2021/03/12 00:44:19;;;;;;;33.63;16.25;;;;;;;1.50;65.45;94908.59;5012764;28;20215;-69
2021/03/12 00:46:44;;;;;;;36.05;18.20;;;;;;;1.31;65.18;94914.69;5014308;28;20189;-69
2021/03/12 00:49:10;;;;;;;37.03;17.53;;;;;;;1.51;64.43;94899.66;5014050;28;20187;-70
2021/03/12 00:51:35;;;;;;;33.30;17.30;;;;;;;1.32;64.80;94895.19;5014303;28;20173;-69
2021/03/12 00:54:01;;;;;;;33.60;17.13;;;;;;;1.54;64.94;94884.06;5014139;28;20220;-69
2021/03/12 00:56:26;;;;;;;29.60;16.70;;;;;;;1.66;64.92;94877.56;5013926;28;20232;-69
2021/03/12 00:58:52;;;;;;;29.97;16.70;;;;;;;1.26;65.30;94885.03;5014245;28;20180;-70
2021/03/12 01:01:17;;;;;;;47.20;19.43;;;;;;;0.87;66.86;94895.84;5013961;28;20197;-69
2021/03/12 01:03:44;;;;;;;38.07;18.90;;;;;;;0.63;67.13;94901.91;5013937;28;20251;-71
2021/03/12 01:06:09;;;;;;;37.67;18.60;;;;;;;0.86;66.73;94895.06;5014068;28;20609;-69
2021/03/12 01:08:35;;;;;;;40.27;19.73;;;;;;;0.94;66.38;94896.25;5014069;28;20189;-70
2021/03/12 01:11:00;;;;;;;40.57;20.83;;;;;;;1.12;65.02;94877.06;5013768;28;20654;-74
2021/03/12 01:13:26;;;;;;;48.30;21.87;;;;;;;0.96;66.06;94878.38;5013898;28;20200;-69
2021/03/12 01:15:51;;;;;;;45.90;22.73;;;;;;;1.05;65.74;94871.38;5013580;28;20165;-69
2021/03/12 01:18:17;;;;;;;50.53;24.10;;;;;;;1.05;65.39;94866.13;5013848;28;20200;-70
2021/03/12 01:20:42;;;;;;;45.57;20.70;;;;;;;1.11;65.99;94869.47;5013736;28;20649;-75
2021/03/12 01:23:08;;;;;;;43.17;21.53;;;;;;;1.16;64.76;94864.13;5013429;28;20215;-76
2021/03/12 01:25:41;;;;;;;47.40;22.97;;;;;;;1.21;64.20;94862.22;5014856;28;20187;-69
2021/03/12 01:28:07;;;;;;;45.33;21.98;;;;;;;1.02;64.93;94845.69;5014173;28;20723;-69
2021/03/12 01:30:41;;;;;;;51.00;21.33;;;;;;;1.03;65.77;94863.78;5013641;28;20212;-69
2021/03/12 01:33:06;;;;;;;41.85;21.08;;;;;;;1.19;64.25;94858.31;5013467;28;20588;-69
2021/03/12 01:35:32;;;;;;;45.03;21.77;;;;;;;1.03;65.17;94857.75;5013444;28;20208;-69
2021/03/12 01:37:58;;;;;;;39.87;20.67;;;;;;;1.42;65.01;94861.91;5013246;28;20173;-69
2021/03/12 01:40:25;;;;;;;40.10;20.43;;;;;;;1.40;65.10;94848.25;5013333;28;20177;-70
2021/03/12 01:42:51;;;;;;;43.00;21.77;;;;;;;1.33;64.56;94824.94;5013042;28;20743;-70
2021/03/12 01:45:20;;;;;;;48.10;22.73;;;;;;;1.45;65.22;94845.53;5007991;28;20312;-69
2021/03/12 01:47:46;;;;;;;44.40;23.17;;;;;;;1.57;65.49;94848.50;5012914;28;20177;-77
2021/03/12 01:50:12;;;;;;;50.93;23.23;;;;;;;1.63;64.58;94860.53;5013157;28;20228;-71
2021/03/12 01:52:37;;;;;;;46.27;23.27;;;;;;;1.74;64.53;94877.72;5012827;28;20212;-76
2021/03/12 01:55:05;;;;;;;52.83;26.47;;;;;;;1.77;63.89;94885.00;5012749;28;20169;-69
2021/03/12 01:57:31;;;;;;;62.58;27.40;;;;;;;1.65;63.95;94857.59;5013029;28;20223;-70
2021/03/12 01:59:56;;;;;;;52.37;26.67;;;;;;;1.48;64.73;94882.59;5011771;28;20178;-70
2021/03/12 02:02:22;;;;;;;61.87;26.40;;;;;;;1.21;66.03;94872.72;5013078;28;20247;-70
2021/03/12 02:04:47;;;;;;;55.93;25.97;;;;;;;1.38;65.45;94877.47;5012566;28;20672;-70
2021/03/12 02:07:13;;;;;;;51.03;26.63;;;;;;;1.52;64.79;94882.81;5013156;28;20185;-69
2021/03/12 02:09:38;;;;;;;50.40;25.87;;;;;;;1.45;65.79;94864.72;5012591;28;20169;-69
2021/03/12 02:12:19;;;;;;;51.10;25.43;;;;;;;1.36;65.66;94850.69;5011630;28;20180;-69
2021/03/12 02:14:52;;;;;;;52.40;25.38;;;;;;;1.64;65.90;94846.28;5011368;28;20231;-69
2021/03/12 02:17:22;;;;;;;47.72;23.98;;;;;;;1.47;65.54;94830.25;5011338;28;20177;-71
2021/03/12 02:19:51;;;;;;;46.33;24.17;;;;;;;1.55;65.48;94822.47;5011278;28;20192;-69
2021/03/12 02:22:17;;;;;;;49.08;24.95;;;;;;;1.52;65.29;94823.06;5011488;28;20181;-68
2021/03/12 02:25:00;;;;;;;51.45;26.95;;;;;;;1.21;67.13;94827.25;5010672;28;20294;-70
2021/03/12 02:27:26;;;;;;;53.25;26.63;;;;;;;1.15;66.60;94833.66;5011350;28;20173;-71
2021/03/12 02:29:53;;;;;;;55.07;24.77;;;;;;;1.13;66.79;94831.31;5012185;28;20666;-69
2021/03/12 02:32:36;;;;;;;47.92;24.17;;;;;;;1.21;66.87;94824.63;5012405;28;20213;-69
2021/03/12 02:35:07;;;;;;;52.03;27.10;;;;;;;1.26;65.73;94787.72;5010794;28;20196;-69
2021/03/12 02:37:33;;;;;;;51.33;24.27;;;;;;;1.53;65.36;94793.03;5010745;28;20188;-68
2021/03/12 02:39:59;;;;;;;48.40;24.53;;;;;;;1.59;65.18;94793.72;5012160;28;20213;-68
2021/03/12 02:42:24;;;;;;;51.10;24.27;;;;;;;1.73;64.38;94806.91;5012134;28;20235;-69
2021/03/12 02:44:50;;;;;;;51.00;24.90;;;;;;;1.43;65.07;94814.25;5010706;28;20220;-69
2021/03/12 02:47:22;;;;;;;48.43;24.30;;;;;;;1.48;65.46;94805.50;5011037;28;20715;-73
2021/03/12 02:49:47;;;;;;;51.60;24.00;;;;;;;1.55;64.76;94792.75;5010913;28;20419;-70
2021/03/12 02:52:13;;;;;;;46.60;23.93;;;;;;;1.42;65.74;94783.75;5010949;28;20599;-73
2021/03/12 02:54:38;;;;;;;53.77;26.87;;;;;;;1.43;65.28;94790.56;4994410;28;20242;-74
2021/03/12 02:57:04;;;;;;;52.20;26.73;;;;;;;1.15;66.19;94802.88;5010929;28;20180;-69
2021/03/12 02:59:30;;;;;;;54.55;24.88;;;;;;;1.22;65.24;94799.88;5010791;28;20714;-69
2021/03/12 03:01:55;;;;;;;49.03;25.83;;;;;;;1.12;66.19;94808.69;5011747;28;20231;-69
2021/03/12 03:04:21;;;;;;;55.30;25.20;;;;;;;1.12;66.75;94792.91;5010730;28;20220;-72
2021/03/12 03:06:47;;;;;;;59.83;28.37;;;;;;;1.00;67.22;94811.75;5010968;28;20260;-74
2021/03/12 03:09:13;;;;;;;52.43;26.10;;;;;;;0.73;67.34;94804.56;5011905;28;20179;-70
2021/03/12 03:11:39;;;;;;;52.17;26.58;;;;;;;0.86;67.76;94797.00;5010559;28;20172;-70
2021/03/12 03:14:04;;;;;;;50.40;25.67;;;;;;;1.04;66.91;94796.97;5011785;28;20660;-70
2021/03/12 03:16:36;;;;;;;49.07;24.37;;;;;;;1.24;65.56;94779.34;5010487;28;20567;-70
2021/03/12 03:19:03;;;;;;;43.25;23.35;;;;;;;1.37;65.19;94788.31;5010778;28;20180;-69
2021/03/12 03:21:29;;;;;;;49.20;23.67;;;;;;;1.43;65.85;94768.75;5010373;28;20268;-70
2021/03/12 03:23:54;;;;;;;45.50;22.10;;;;;;;1.55;64.33;94767.22;5011621;28;20289;-69
2021/03/12 03:26:20;;;;;;;44.27;21.40;;;;;;;1.54;63.92;94768.28;5010346;28;20208;-71
2021/03/12 03:28:45;;;;;;;41.47;19.73;;;;;;;1.39;64.05;94751.97;5011663;28;20165;-69
2021/03/12 03:31:11;;;;;;;39.70;20.80;;;;;;;1.63;64.67;94772.84;5011737;28;20169;-69
2021/03/12 03:33:36;;;;;;;39.57;21.30;;;;;;;1.45;65.79;94767.38;5011382;28;20176;-69
2021/03/12 03:36:02;;;;;;;51.17;23.73;;;;;;;1.26;65.92;94758.78;5011825;28;20717;-69
2021/03/12 03:38:28;;;;;;;40.77;20.97;;;;;;;1.30;65.65;94767.66;5011371;28;20549;-70
2021/03/12 03:40:53;;;;;;;39.00;19.80;;;;;;;1.55;64.60;94767.22;5011636;28;20174;-69
2021/03/12 03:43:24;;;;;;;44.67;20.10;;;;;;;1.29;65.84;94777.41;5009963;28;20201;-69
2021/03/12 03:45:49;;;;;;;38.28;20.52;;;;;;;0.79;67.68;94787.63;5010352;28;20228;-69
2021/03/12 03:48:14;;;;;;;41.97;21.23;;;;;;;1.10;65.90;94778.50;5010182;28;20177;-70
2021/03/12 03:50:40;;;;;;;37.40;20.73;;;;;;;1.05;67.22;94750.44;5010452;28;20648;-69
2021/03/12 03:53:06;;;;;;;35.17;18.97;;;;;;;1.37;65.93;94756.75;5011116;28;20221;-69
2021/03/12 03:55:31;;;;;;;41.67;19.40;;;;;;;1.41;65.28;94763.00;5010305;28;20192;-69
2021/03/12 03:57:57;;;;;;;40.70;19.73;;;;;;;1.43;65.98;94764.25;4993923;28;20185;-69
2021/03/12 04:00:23;;;;;;;40.58;20.70;;;;;;;1.50;65.28;94762.03;5009983;28;20174;-73
2021/03/12 04:02:48;;;;;;;42.20;19.17;;;;;;;1.48;65.59;94763.41;5011252;28;20177;-75
2021/03/12 04:05:15;;;;;;;40.58;18.80;;;;;;;1.42;65.63;94764.56;5010022;28;20201;-71
2021/03/12 04:07:40;;;;;;;37.77;20.40;;;;;;;1.42;65.95;94765.34;5011257;28;20181;-70
2021/03/12 04:10:06;;;;;;;46.30;20.93;;;;;;;0.68;68.32;94767.06;5011173;28;20185;-70
2021/03/12 04:12:32;;;;;;;38.78;20.45;;;;;;;0.90;68.50;94750.66;5010003;28;20177;-69
2021/03/12 04:14:57;;;;;;;38.73;21.03;;;;;;;1.28;66.65;94759.25;5006826;28;20188;-74
2021/03/12 04:17:23;;;;;;;41.00;20.37;;;;;;;1.50;66.08;94763.88;5004308;28;20181;-69
2021/03/12 04:19:48;;;;;;;37.87;19.57;;;;;;;1.54;65.44;94764.88;4996707;28;20272;-73
2021/03/12 04:22:14;;;;;;;41.00;20.43;;;;;;;1.33;66.07;94767.84;5013060;28;20249;-74
2021/03/12 04:24:40;;;;;;;39.80;21.50;;;;;;;0.85;66.75;94758.66;4996862;28;20201;-69
2021/03/12 04:27:06;;;;;;;38.33;20.13;;;;;;;1.15;66.48;94754.75;5013451;28;20177;-69
2021/03/12 04:29:31;;;;;;;44.08;20.35;;;;;;;1.34;66.33;94763.34;4997343;28;20169;-69
2021/03/12 04:31:57;;;;;;;36.37;19.33;;;;;;;1.56;65.61;94760.88;4997193;28;20667;-69
2021/03/12 04:34:23;;;;;;;40.33;20.00;;;;;;;1.55;65.26;94751.41;5013565;28;20165;-69
2021/03/12 04:36:48;;;;;;;33.63;17.47;;;;;;;1.48;64.83;94742.34;5014414;28;20216;-69
2021/03/12 04:39:14;;;;;;;36.20;19.20;;;;;;;1.48;65.38;94750.25;4997034;28;20235;-68
2021/03/12 04:41:39;;;;;;;32.13;16.97;;;;;;;1.14;66.43;94753.19;4996943;28;20176;-69
2021/03/12 04:44:05;;;;;;;33.57;17.93;;;;;;;1.24;66.63;94768.81;5014436;28;20204;-69
2021/03/12 04:46:30;;;;;;;27.87;16.20;;;;;;;1.21;65.96;94749.13;5012505;28;20161;-69
2021/03/12 04:48:56;;;;;;;36.07;17.77;;;;;;;1.26;65.55;94745.63;4995131;28;20659;-72
2021/03/12 04:51:21;;;;;;;40.37;19.40;;;;;;;1.25;65.94;94765.09;4995696;28;20173;-68
2021/03/12 04:53:47;;;;;;;35.17;17.40;;;;;;;1.18;66.37;94772.56;5011516;28;20274;-72
2021/03/12 04:56:13;;;;;;;33.57;17.50;;;;;;;1.09;66.50;94761.16;5011998;28;20180;-70
2021/03/12 04:58:39;;;;;;;30.15;17.58;;;;;;;1.31;65.79;94770.00;5012787;28;20612;-72
2021/03/12 05:01:08;;;;;;;29.77;16.77;;;;;;;1.27;66.04;94774.25;5012280;28;20173;-70
2021/03/12 05:03:34;;;;;;;34.60;16.95;;;;;;;1.32;66.22;94760.25;5013190;28;20764;-70
2021/03/12 05:05:59;;;;;;;33.17;17.10;;;;;;;0.92;67.23;94759.84;5013093;28;20181;-74
2021/03/12 05:08:25;;;;;;;38.50;19.47;;;;;;;0.56;67.78;94764.81;5012939;28;20173;-74
2021/03/12 05:10:58;;;;;;;36.40;19.17;;;;;;;0.70;68.31;94746.50;4995846;28;20169;-74
2021/03/12 05:13:24;;;;;;;36.95;19.42;;;;;;;0.90;66.98;94740.94;5012825;28;20181;-72
2021/03/12 05:15:49;;;;;;;41.13;20.00;;;;;;;1.14;67.03;94745.31;5013426;28;20713;-73
2021/03/12 05:18:15;;;;;;;37.97;20.30;;;;;;;1.15;66.35;94731.09;5013970;28;20731;-73
2021/03/12 05:20:40;;;;;;;40.00;20.60;;;;;;;1.10;66.98;94749.56;5012348;28;20199;-74
2021/03/12 05:23:06;;;;;;;36.67;19.90;;;;;;;0.60;68.34;94739.56;5012572;28;20705;-72
2021/03/12 05:25:31;;;;;;;44.40;20.27;;;;;;;0.49;69.17;94775.69;5013472;28;20180;-74
2021/03/12 05:27:57;;;;;;;37.83;19.90;;;;;;;0.84;68.32;94783.34;5013703;28;20702;-73
2021/03/12 05:30:23;;;;;;;44.33;22.77;;;;;;;0.62;68.79;94774.22;5012504;28;20169;-75
2021/03/12 05:32:48;;;;;;;37.55;19.05;;;;;;;0.41;69.28;94783.44;5013753;28;20654;-74
2021/03/12 05:35:14;;;;;;;34.10;19.23;;;;;;;0.81;67.67;94782.09;5013425;28;20177;-74
2021/03/12 05:37:39;;;;;;;37.43;19.80;;;;;;;0.70;67.37;94780.69;5013450;28;20188;-75
2021/03/12 05:40:06;;;;;;;48.63;21.77;;;;;;;0.92;66.38;94783.50;5013493;28;20165;-75
2021/03/12 05:42:31;;;;;;;43.20;21.20;;;;;;;1.04;65.89;94801.47;5013134;28;20177;-75
2021/03/12 05:44:57;;;;;;;41.57;20.53;;;;;;;1.35;64.86;94809.66;5012076;28;20220;-70
2021/03/12 05:47:23;;;;;;;38.67;19.43;;;;;;;1.52;65.13;94795.97;5012701;28;20181;-70
2021/03/12 05:49:49;;;;;;;38.07;19.30;;;;;;;1.46;65.91;94768.16;4995302;28;20809;-71
2021/03/12 05:52:14;;;;;;;38.85;19.38;;;;;;;1.52;65.70;94780.19;5011630;28;20224;-71
2021/03/12 05:54:40;;;;;;;39.90;20.43;;;;;;;1.58;64.12;94786.91;5011887;28;20196;-71
2021/03/12 05:57:06;;;;;;;37.47;20.00;;;;;;;1.87;64.42;94799.03;4995224;28;20192;-71
2021/03/12 05:59:32;;;;;;;43.07;22.37;;;;;;;1.79;64.54;94801.25;4995613;28;20656;-71
2021/03/12 06:01:58;;;;;;;41.13;20.88;;;;;;;1.66;65.95;94785.44;4995180;28;20554;-73
2021/03/12 06:04:23;;;;;;;45.73;24.00;;;;;;;1.59;65.93;94799.00;5011791;28;20204;-74
2021/03/12 06:06:49;;;;;;;48.13;24.20;;;;;;;1.74;64.72;94805.81;5012902;28;20235;-72
2021/03/12 06:09:14;;;;;;;49.10;24.67;;;;;;;1.72;64.24;94803.50;5011295;28;20192;-70
2021/03/12 06:11:40;;;;;;;51.10;25.57;;;;;;;1.48;64.77;94808.13;5012828;28;20169;-70
2021/03/12 06:14:05;;;;;;;52.60;25.60;;;;;;;1.53;65.39;94819.34;4995185;28;20216;-70
2021/03/12 06:16:31;;;;;;;51.77;25.97;;;;;;;1.45;65.70;94814.75;4994823;28;20651;-72
2021/03/12 06:19:09;;;;;;;51.93;26.23;;;;;;;1.76;65.41;94835.28;5012376;28;20169;-74
2021/03/12 06:21:35;;;;;;;46.67;24.83;;;;;;;1.68;65.43;94820.16;5012524;28;20180;-72
2021/03/12 06:24:00;;;;;;;45.77;25.60;;;;;;;1.68;65.17;94834.09;5010579;28;20216;-73
2021/03/12 06:26:43;;;;;;;47.03;24.87;;;;;;;1.74;65.90;94824.25;5012680;28;20189;-73
2021/03/12 06:29:09;;;;;;;57.78;26.92;;;;;;;1.63;65.47;94834.19;5012252;28;20674;-69
2021/03/12 06:31:34;;;;;;;58.47;25.93;;;;;;;1.81;65.79;94819.41;5012355;28;20181;-70
2021/03/12 06:34:10;;;;;;;58.33;27.87;;;;;;;1.78;65.21;94823.38;4994743;28;20656;-72
2021/03/12 06:36:35;;;;;;;54.75;27.38;;;;;;;2.03;65.63;94827.44;5012375;28;20223;-73
2021/03/12 06:39:01;;;;;;;58.40;31.47;;;;;;;2.10;64.63;94832.31;5012087;28;20173;-71
2021/03/12 06:41:39;;;;;;;63.30;30.97;;;;;;;1.98;64.31;94839.91;5012293;28;20674;-74
2021/03/12 06:44:36;;;;;;;65.32;31.90;;;;;;;1.86;64.16;94858.81;4993970;28;20698;-73
2021/03/12 06:47:02;;;;;;;67.80;33.00;;;;;;;1.69;65.47;94867.25;5012226;28;20188;-69
2021/03/12 06:49:28;;;;;;;65.07;32.53;;;;;;;1.77;66.14;94882.38;5012071;28;20554;-69
2021/03/12 06:51:54;;;;;;;61.90;30.30;;;;;;;1.70;67.41;94895.13;5012045;28;20192;-69
2021/03/12 06:54:20;;;;;;;63.83;28.08;;;;;;;2.08;65.04;94902.94;5011850;28;20616;-69
2021/03/12 06:56:45;;;;;;;57.10;28.77;;;;;;;1.91;64.44;94894.78;5011918;28;20177;-69
2021/03/12 06:59:11;;;;;;;56.90;26.73;;;;;;;1.78;64.60;94893.69;5010687;28;20644;-69
2021/03/12 07:01:36;;;;;;;49.77;27.13;;;;;;;1.44;65.10;94894.75;5010778;28;20659;-70
2021/03/12 07:04:12;;;;;;;49.93;26.73;;;;;;;1.77;65.30;94897.41;5010528;28;20215;-72
2021/03/12 07:06:45;;;;;;;48.70;25.13;;;;;;;1.83;66.28;94902.28;5010677;28;20175;-73
2021/03/12 07:09:11;;;;;;;45.05;24.35;;;;;;;2.02;65.40;94899.63;5010320;28;20252;-70
2021/03/12 07:11:36;;;;;;;44.47;25.03;;;;;;;2.27;64.27;94902.84;5011851;28;20644;-71
2021/03/12 07:14:02;;;;;;;46.57;25.47;;;;;;;2.01;63.22;94913.06;5010176;28;20219;-70
2021/03/12 07:16:27;;;;;;;43.93;23.63;;;;;;;2.15;64.33;94916.50;5011847;28;20165;-71
2021/03/12 07:18:53;;;;;;;57.73;29.27;;;;;;;2.44;63.54;94912.81;5011728;28;20656;-70
2021/03/12 07:21:20;;;;;;;44.92;23.75;;;;;;;2.59;63.03;94909.91;5011596;28;20177;-71
2021/03/12 07:23:55;;;;;;;52.38;27.20;;;;;;;2.62;62.92;94912.72;5011597;28;20284;-72
2021/03/12 07:26:21;;;;;;;53.28;25.95;;;;;;;2.77;61.89;94908.22;5011539;28;20183;-71
2021/03/12 07:28:46;;;;;;;46.27;26.00;;;;;;;2.43;62.87;94888.31;5011657;28;20185;-72
2021/03/12 07:31:14;;;;;;;50.67;26.87;;;;;;;2.55;63.15;94920.25;5011540;28;20173;-70
2021/03/12 07:33:45;;;;;;;53.72;27.70;;;;;;;2.70;62.52;94897.31;5011631;28;20571;-72
2021/03/12 07:36:11;;;;;;;53.72;26.55;;;;;;;3.03;62.02;94908.47;4994248;28;20188;-73
2021/03/12 07:38:36;;;;;;;46.07;23.50;;;;;;;2.96;61.31;94887.00;5010351;28;20176;-70
2021/03/12 07:41:05;;;;;;;53.80;25.10;;;;;;;3.03;60.95;94896.09;4993639;28;20234;-72
2021/03/12 07:43:35;;;;;;;47.78;23.88;;;;;;;2.98;62.11;94898.06;5011619;28;20686;-69
2021/03/12 07:46:02;;;;;;;48.08;25.08;;;;;;;3.07;61.90;94890.97;5010177;28;20204;-73
2021/03/12 07:48:29;;;;;;;42.88;23.45;;;;;;;3.19;61.87;94881.47;4994018;28;20651;-70
2021/03/12 07:51:20;;;;;;;42.53;23.58;;;;;;;3.40;60.38;94883.66;5009997;28;20230;-70
2021/03/12 07:53:50;;;;;;;46.45;23.85;;;;;;;3.38;60.09;94888.47;5008448;28;20225;-70
2021/03/12 07:56:16;;;;;;;50.05;25.38;;;;;;;3.44;59.52;94893.31;5015141;28;20559;-69
2021/03/12 07:58:51;;;;;;;52.63;26.08;;;;;;;3.38;62.27;94886.59;5015273;28;20230;-70
2021/03/12 08:01:20;;;;;;;55.42;25.67;;;;;;;3.18;62.93;94877.25;5015115;28;20169;-70
2021/03/12 08:03:45;;;;;;;39.78;23.33;;;;;;;3.09;60.00;94871.16;5014950;28;20212;-70
2021/03/12 08:06:17;;;;;;;51.93;26.17;;;;;;;3.27;60.45;94858.88;5015212;28;20161;-70
2021/03/12 08:08:43;;;;;;;50.05;27.05;;;;;;;3.68;59.47;94850.00;5015151;28;20179;-71
2021/03/12 08:11:33;;;;;;;59.60;28.13;;;;;;;3.83;59.07;94839.06;5014970;28;20177;-71
2021/03/12 08:14:08;;;;;;;61.55;29.20;;;;;;;3.65;59.64;94847.97;5015032;28;20187;-71
2021/03/12 08:16:35;;;;;;;60.60;30.45;;;;;;;3.72;60.73;94851.72;5014905;28;20311;-73
2021/03/12 08:19:28;;;;;;;56.13;29.10;;;;;;;3.69;64.86;94846.25;4997591;28;20188;-70
2021/03/12 08:21:54;;;;;;;59.70;27.92;;;;;;;3.90;62.95;94855.25;5014861;28;20181;-71
2021/03/12 08:24:45;;;;;;;53.20;26.97;;;;;;;4.23;61.31;94863.63;5014614;28;20697;-70
2021/03/12 08:27:11;;;;;;;51.10;25.75;;;;;;;4.26;60.38;94888.66;5014839;28;20185;-70
2021/03/12 08:29:37;;;;;;;48.23;24.53;;;;;;;4.20;59.44;94893.31;5014496;28;20181;-69
2021/03/12 08:32:36;;;;;;;47.08;23.65;;;;;;;3.69;61.99;94902.50;5014871;28;20408;-70
2021/03/12 08:35:03;;;;;;;46.33;23.50;;;;;;;4.12;61.30;94894.06;5014639;28;20227;-71
2021/03/12 08:37:29;;;;;;;36.38;20.10;;;;;;;4.14;59.62;94880.53;5013276;28;20246;-68
2021/03/12 08:40:14;;;;;;;40.73;21.27;;;;;;;4.20;61.15;94903.09;5014331;28;20661;-70
2021/03/12 08:42:53;;;;;;;39.67;19.00;;;;;;;4.14;61.93;94896.38;5003624;28;20289;-69
2021/03/12 08:45:32;;;;;;;38.92;18.77;;;;;;;4.12;59.24;94898.56;5013052;28;20282;-69
2021/03/12 08:48:10;;;;;;;34.33;17.80;;;;;;;4.31;57.71;94895.69;5014059;28;20196;-72
2021/03/12 08:50:43;;;;;;;41.38;18.27;;;;;;;4.27;61.80;94892.91;5014229;28;20188;-72
2021/03/12 08:53:09;;;;;;;37.65;20.25;;;;;;;4.50;60.08;94888.31;4997345;28;20240;-70
2021/03/12 08:55:35;;;;;;;40.80;19.17;;;;;;;4.52;60.54;94878.22;5012839;28;20212;-71
2021/03/12 08:58:23;;;;;;;33.70;18.05;;;;;;;4.37;59.58;94882.03;5014077;28;20227;-68
2021/03/12 09:00:53;;;;;;;33.65;18.85;;;;;;;4.62;58.56;94880.56;5013971;28;20192;-71
2021/03/12 09:03:23;;;;;;;36.83;18.15;;;;;;;4.42;59.91;94884.53;5013828;28;20291;-69
2021/03/12 09:05:53;;;;;;;33.83;19.13;;;;;;;4.68;57.61;94889.94;5012909;28;20176;-69
2021/03/12 09:08:22;;;;;;;35.70;18.73;;;;;;;4.81;57.48;94882.16;5013812;28;20626;-71
2021/03/12 09:10:48;;;;;;;38.15;17.67;;;;;;;4.86;55.73;94872.22;5013864;28;20184;-70
2021/03/12 09:13:20;;;;;;;30.90;16.67;;;;;;;4.71;57.02;94878.75;5013561;28;20185;-72
2021/03/12 09:15:46;;;;;;;32.13;18.02;;;;;;;4.87;57.43;94876.41;5013726;28;20664;-72
2021/03/12 09:18:13;;;;;;;34.47;18.40;;;;;;;4.73;60.04;94878.44;5013532;28;20322;-75
2021/03/12 09:20:40;;;;;;;44.15;19.67;;;;;;;4.89;59.35;94854.97;5013573;28;20444;-70
2021/03/12 09:23:05;;;;;;;43.58;20.67;;;;;;;5.29;58.46;94868.84;4996082;28;20192;-70
2021/03/12 09:25:31;;;;;;;41.83;21.80;;;;;;;5.40;56.60;94872.75;5013647;28;20169;-72
2021/03/12 09:28:06;;;;;;;38.55;19.95;;;;;;;5.31;57.53;94861.38;5012165;28;20197;-70
2021/03/12 09:30:37;;;;;;;33.00;18.80;;;;;;;5.30;54.18;94857.16;5013728;28;20263;-71
2021/03/12 09:33:03;;;;;;;32.67;17.85;;;;;;;5.34;56.00;94852.81;5013346;28;20176;-72
2021/03/12 09:35:29;;;;;;;38.58;20.35;;;;;;;5.22;55.44;94848.16;5013527;28;20189;-72
2021/03/12 09:37:55;;;;;;;35.23;17.27;;;;;;;5.42;56.65;94848.59;5013195;28;20181;-72
2021/03/12 09:40:33;;;;;;;38.33;19.70;;;;;;;5.44;57.19;94847.19;5011936;28;20188;-69
2021/03/12 09:42:59;;;;;;;36.65;19.92;;;;;;;5.76;56.38;94858.38;5013245;28;20181;-70
2021/03/12 09:45:25;;;;;;;35.97;19.03;;;;;;;5.76;55.72;94848.56;5013177;28;20648;-71
2021/03/12 09:47:52;;;;;;;38.73;20.00;;;;;;;5.44;57.02;94854.34;5013144;28;20460;-72
2021/03/12 09:50:18;;;;;;;38.43;18.93;;;;;;;5.72;55.76;94850.25;5013234;28;20478;-71
2021/03/12 09:52:45;;;;;;;35.57;19.07;;;;;;;5.88;54.96;94841.81;5011883;28;20899;-73
2021/03/12 09:55:10;;;;;;;38.80;17.70;;;;;;;6.20;53.20;94820.09;4995417;28;20173;-73
2021/03/12 09:57:36;;;;;;;45.40;20.73;;;;;;;6.36;56.71;94836.25;5011817;28;20969;-69
2021/03/12 10:00:05;;;;;;;31.00;17.60;;;;;;;6.68;51.88;94829.53;5011562;28;20181;-71
2021/03/12 10:02:30;;;;;;;29.90;17.77;;;;;;;6.78;50.96;94838.97;5011764;28;20181;-70
2021/03/12 10:04:57;;;;;;;32.70;17.97;;;;;;;6.93;51.94;94843.75;5012608;28;20467;-69
2021/03/12 10:07:23;;;;;;;33.50;19.17;;;;;;;6.89;53.93;94843.59;5012976;28;20196;-70
2021/03/12 10:09:49;;;;;;;36.47;19.73;;;;;;;7.08;52.32;94845.84;5012404;28;20420;-70
2021/03/12 10:12:24;;;;;;;40.63;19.97;;;;;;;7.21;53.93;94832.63;5012885;28;20177;-72
2021/03/12 10:14:51;;;;;;;36.10;19.23;;;;;;;7.23;51.98;94831.19;5012520;28;20430;-72
2021/03/12 10:17:25;;;;;;;34.30;19.47;;;;;;;7.31;52.46;94816.28;5012434;28;20424;-73
2021/03/12 10:19:52;;;;;;;36.73;19.77;;;;;;;7.38;49.84;94814.66;5012405;28;20412;-73
2021/03/12 10:22:18;;;;;;;33.50;19.43;;;;;;;7.68;50.77;94820.63;5011431;28;20546;-73
2021/03/12 10:24:57;;;;;;;32.40;18.80;;;;;;;7.56;53.63;94827.78;5012564;28;20514;-72
2021/03/12 10:27:23;;;;;;;36.13;19.23;;;;;;;7.57;53.49;94814.16;5012581;28;20180;-74
2021/03/12 10:29:49;;;;;;;38.87;20.60;;;;;;;7.69;52.78;94816.13;5012426;28;20452;-73
2021/03/12 10:32:14;;;;;;;44.40;22.07;;;;;;;7.86;51.75;94815.16;5012468;28;20969;-73
2021/03/12 10:34:50;;;;;;;39.60;20.23;;;;;;;7.76;53.08;94810.25;5012502;28;20268;-73
2021/03/12 10:37:20;;;;;;;39.63;20.70;;;;;;;8.04;53.25;94794.47;5027507;28;20666;-73
2021/03/12 10:39:49;;;;;;;45.03;21.07;;;;;;;7.84;50.84;94814.69;5010547;28;20835;-73
2021/03/12 10:42:15;;;;;;;38.13;22.40;;;;;;;8.14;52.98;94812.66;5012184;28;20922;-75
2021/03/12 10:44:54;;;;;;;40.37;22.77;;;;;;;8.01;53.46;94819.06;5012142;28;20471;-73
2021/03/12 10:47:19;;;;;;;39.13;21.27;;;;;;;8.20;53.85;94821.97;5012153;28;20175;-72
2021/03/12 10:49:46;;;;;;;43.07;22.17;;;;;;;8.33;53.13;94802.25;4994644;28;20847;-71
2021/03/12 10:52:30;;;;;;;44.93;21.83;;;;;;;8.36;52.50;94809.63;5010786;28;20185;-72
2021/03/12 10:55:02;;;;;;;43.80;23.57;;;;;;;8.70;53.25;94803.06;5011985;28;20428;-71
2021/03/12 10:57:46;;;;;;;38.83;21.60;;;;;;;9.03;49.28;94799.44;5010776;28;20436;-72
2021/03/12 11:00:31;;;;;;;37.90;20.13;;;;;;;9.19;48.84;94797.63;5011753;28;20442;-73
2021/03/12 11:03:01;;;;;;;39.43;21.27;;;;;;;9.05;48.62;94789.25;5012093;28;20737;-73
2021/03/12 11:05:28;;;;;;;44.77;22.23;;;;;;;8.98;48.50;94779.16;5011755;28;20953;-71
2021/03/12 11:07:53;;;;;;;36.70;21.43;;;;;;;9.01;46.35;94783.03;5012056;28;20988;-73
2021/03/12 11:10:19;;;;;;;40.93;22.13;;;;;;;8.82;49.99;94780.19;5011731;28;20535;-72
2021/03/12 11:12:46;;;;;;;43.43;20.87;;;;;;;8.76;47.23;94769.00;5011676;28;20188;-73
2021/03/12 11:15:13;;;;;;;43.83;22.53;;;;;;;8.58;50.77;94765.00;5011834;28;20196;-72
2021/03/12 11:17:41;;;;;;;49.40;23.73;;;;;;;8.22;49.23;94763.91;5011693;28;20460;-72
2021/03/12 11:20:07;;;;;;;44.50;23.03;;;;;;;8.29;50.65;94772.09;5010411;28;20456;-72
2021/03/12 11:22:33;;;;;;;40.60;21.80;;;;;;;8.60;48.97;94768.91;5010233;28;20436;-72
2021/03/12 11:25:00;;;;;;;40.60;22.77;;;;;;;8.82;50.11;94764.22;5011413;28;20463;-72
2021/03/12 11:27:27;;;;;;;42.50;22.33;;;;;;;9.05;50.14;94754.63;5010937;28;20836;-74